IAD weather

Washington Dulles International Airport
Washington, District of Columbia, United States

Public forecast

Using degrees Fahrenheit for public forecast. Weather courtesy of forecast.io.

Current aviation weather report (METAR) for Washington Dulles International Airport

Retrieved 2020/01/23 09:52 UTC (44 minutes ago):

KIAD 230952Z 00000KT 10SM FEW010 SCT250 M07/M09 A3039 RMK AO2 SLP295 I1000 T10721094

Aviation forecast (TAF) for Washington Dulles International Airport

Retrieved 2020/01/23 06:33 UTC (4 hours ago):

TAF KIAD 230530Z 2306/2412 00000KT P6SM SCT250 FM231900 15004KT P6SM BKN250 FM240900 00000KT P6SM BKN040